Terminal Aerodrome Forecast
Issued by NWS

Home | Current Version | Previous Version | Text Only | Print | Product List | Glossary On
Versions: 1 2 3 4 5 6 7 8 9 10 11 12 13 14 15 16 17 18 19 20 21 22 23 24 25 26 27 28 29 30 31 32 33 34 35
000
FTUS45 KGJT 302354 AAA
TAFVEL
TAF AMD
KVEL 302354Z 3100/3124 10003KT 1SM -RA BR BKN002 BKN006 OVC030
     FM310300 VRB03KT 3SM -RA BR BKN006 OVC030
     FM310600 00000KT 3SM BR BKN011
     FM311000 02002KT 1SM BR BKN010
     FM311600 05002KT 1SM BR OVC009
     FM311900 VRB03KT 4SM BR OVC015=

USA.gov is the U.S. government's official web portal to all federal, state and local government web resources and services.